Карточка аэропорта UNOO

Внимание!
Информация на этой странице в стадии наполнения.
Если вы не увидели какой-то информации, или заметили неточность - пожалуйста сообщите нам!
Спасибо!
Команда RU-STAFF
Название аэропортаЦентральный
Название аэропорта (англ.)Tsentralny
Превышение312 ft. (95.1 m.)
Координаты54°58.02', 73°18.6'
Высота перехода900m
Эшелон переходаQFE>=733:FL50; QFE<733:FL60;
Коды ответчика5440-5457
Зона ОрВДНовосибирск РПИ (UNNT)
Данные METARUNOO 250230Z 28004MPS 9999 FEW016 BKN023CB 15/11 Q1005 R25/CLRD60 NOSIG RMK QFE745
Проноз погоды (TAF)UNOO 250150Z 2503/2603 29003G10MPS 9999 SCT010 BKN030CB BECMG 2508/2509 32005G12MPS BECMG 2515/2517 VRB01MPS
NOTAMshow/hide NOTAM
AWOS   TABLE

Информация о ВПП

ВПП Длина ВПП (м.) Покрытие Курс ВПП Частота ILS
072501Асфальтобетон65108.3
252501Асфальтобетон245110.1

Диспетчерские позиции

Позывной Наименование органа УВД Частота
UNOO_APPОмск-Подход131.200
UNOO_GNDОмск-Руление121.700
UNOO_R_APPОмск-Круг119.050
UNOO_TWRОмск-Старт119.000



Спутниковое изображение